Latest Weather Observations for Walgett

IDN60801

Issued at 8:32 pm EDT Friday 12 February 2016 (issued every 30 minutes, with the page automatically refreshed every 10 minutes)

About weather observations | Map of weather stations | Latest weather observations for NSW | Other Formats
Station Details ID: 052088 Name: WALGETT AIRPORT AWS Lat: -30.04 Lon: 148.12 Height: 133.0 m
Data from the previous 72 hours. | See also: Recent months at Walgett
Date/Time
EDT
Temp
°C
App
Temp
°C
Dew
Point
Rel
Hum
%
Delta-T
°C
Wind Press
QNH
hPa
Press
MSL
hPa
Rain
since 9 am
mm
Dir
 
Spd
km/h
Gust
km/h
Spd
kts
Gust
kts
12/08:30pm 28.9 27.9 11.0 33 10.3 ENE 7 9 4 5 1011.1 1010.3 0.0
12/08:00pm 30.7 28.8 10.6 29 11.6 E 11 15 6 8 1010.8 1010.0 0.0
12/07:30pm 31.9 29.7 12.2 30 11.7 ENE 15 22 8 12 1010.6 1009.8 0.0
12/07:00pm 32.7 31.9 12.9 30 11.9 N 9 11 5 6 1010.4 1009.6 0.0
12/06:30pm 33.4 31.7 12.4 28 12.6 E 13 20 7 11 1010.4 1009.6 0.0
12/06:00pm 33.6 31.6 12.6 28 12.6 NE 15 20 8 11 1010.3 1009.5 0.0
12/05:30pm 33.8 32.9 12.7 27 12.7 NNE 9 15 5 8 1010.4 1009.6 0.0
12/05:00pm 33.7 32.6 13.2 29 12.5 NNE 11 20 6 11 1010.3 1009.5 0.0
12/04:30pm 33.7 31.9 12.1 27 12.9 ENE 13 22 7 12 1010.5 1009.7 0.0
12/04:00pm 33.4 31.3 13.5 30 12.1 ENE 17 24 9 13 1010.7 1009.9 0.0
12/03:30pm 33.3 32.3 13.4 30 12.1 NE 11 22 6 12 1011.1 1010.3 0.0
12/03:00pm 32.3 30.7 14.0 33 11.2 NE 15 22 8 12 1011.7 1010.9 0.0
12/02:30pm 32.3 32.2 14.9 35 10.8 NNE 9 15 5 8 1012.0 1011.2 0.0
12/02:00pm 31.9 31.4 15.0 36 10.5 NE 11 20 6 11 1012.5 1011.7 0.0
12/01:30pm 30.9 29.5 14.5 37 10.0 NE 15 24 8 13 1012.8 1012.0 0.0
12/01:00pm 30.7 29.1 15.9 40 9.2 NE 19 28 10 15 1013.1 1012.3 0.0
12/12:30pm 30.0 28.9 16.4 44 8.5 ENE 17 26 9 14 1013.5 1012.7 0.0
12/12:00pm 29.8 28.9 16.9 45 8.2 ENE 17 26 9 14 1013.8 1013.0 0.0
12/11:30am 28.9 27.4 16.8 48 7.6 NE 20 33 11 18 1014.1 1013.3 0.0
12/11:00am 27.8 26.1 15.8 48 7.4 NE 19 32 10 17 1014.4 1013.6 0.0
12/10:30am 27.6 25.7 16.6 51 6.9 NE 22 32 12 17 1014.4 1013.6 0.0
12/10:00am 27.1 24.7 16.4 52 6.6 NNE 24 33 13 18 1014.3 1013.5 0.0
12/09:30am 26.4 23.6 16.3 53 6.3 NE 26 35 14 19 1014.0 1013.2 0.0
12/09:00am 25.8 22.0 16.6 56 5.7 NNE 32 41 17 22 1013.8 1013.0 0.0
12/08:30am 24.9 21.8 16.6 60 5.1 NNE 28 39 15 21 1013.5 1012.7 0.0
12/08:00am 23.4 20.5 16.0 63 4.5 NE 26 35 14 19 1013.2 1012.4 0.0
12/07:30am 23.1 20.8 15.7 63 4.5 NE 22 32 12 17 1012.7 1011.9 0.0
12/07:00am 22.6 20.1 15.2 63 4.4 NE 22 30 12 16 1012.3 1011.5 0.0
12/06:30am 22.7 20.3 14.3 59 5.0 NE 20 33 11 18 1012.0 1011.2 0.0
12/06:00am 22.6 19.8 13.1 55 5.5 NE 20 28 11 15 1011.7 1010.9 0.0
12/05:30am 23.5 21.6 13.1 52 6.0 ENE 15 20 8 11 1011.0 1010.2 0.0
12/05:00am 23.1 21.8 13.8 55 5.5 ESE 13 19 7 10 1010.8 1010.0 0.0
12/04:30am 21.6 20.5 13.2 59 4.8 ESE 11 13 6 7 1010.9 1010.1 0.0
12/04:00am 22.4 20.7 13.7 58 5.1 SE 15 19 8 10 1011.1 1010.3 0.0
12/03:30am 21.6 20.2 13.5 60 4.7 S 13 15 7 8 1011.4 1010.6 0.0
12/03:00am 22.9 21.6 13.7 56 5.4 SSW 13 17 7 9 1011.6 1010.8 0.0
12/02:30am 24.6 22.4 13.2 49 6.7 SSW 17 20 9 11 1012.1 1011.3 0.0
12/02:00am 24.5 22.6 13.1 49 6.7 SSW 15 17 8 9 1012.1 1011.3 0.0
12/01:30am 26.3 23.3 12.4 42 8.1 ESE 20 30 11 16 1012.0 1011.2 0.0
12/01:00am 24.1 23.0 14.2 54 5.9 E 13 17 7 9 1012.2 1011.4 0.0
12/12:30am 23.6 24.3 15.6 61 4.8 SE 6 7 3 4 1012.0 1011.2 0.0
12/12:00am 23.6 23.9 16.1 62 4.6 SE 9 11 5 6 1012.3 1011.5 0.0
 
Date/Time
EDT
Temp
°C
App
Temp
°C
Dew
Point
Rel
Hum
%
Delta-T
°C
Wind Press
QNH
hPa
Press
MSL
hPa
Rain
since 9 am
mm
Dir
 
Spd
km/h
Gust
km/h
Spd
kts
Gust
kts
11/11:30pm 23.6 23.7 15.4 60 4.9 SE 9 15 5 8 1012.4 1011.6 0.0
11/11:00pm 24.4 22.3 15.1 56 5.6 SSW 20 28 11 15 1012.5 1011.7 0.0
11/10:30pm 24.2 19.7 14.9 56 5.6 S 32 43 17 23 1012.5 1011.7 0.0
11/10:02pm 24.5 17.8 14.6 54 5.9 S 43 61 23 33 1012.8 1012.0 0.0
11/10:00pm 24.9 18.0 14.4 52 6.3 S 44 61 24 33 1012.8 1012.0 0.0
11/09:47pm 28.3 23.9 13.0 39 9.1 S 28 54 15 29 1011.9 1011.1 0.0
11/09:41pm 31.7 28.4 11.0 28 12.0 S 19 39 10 21 1011.3 1010.5 0.0
11/09:30pm 27.1 28.8 15.1 47 7.3 CALM 0 0 0 0 1011.1 1010.3 0.0
11/09:00pm 28.4 28.4 13.5 40 8.9 NNE 6 7 3 4 1010.8 1010.0 0.0
11/08:30pm 29.7 29.5 13.5 37 9.7 N 7 9 4 5 1010.4 1009.6 0.0
11/08:00pm 30.2 29.6 13.5 36 10.1 NNE 9 9 5 5 1010.0 1009.1 0.0
11/07:30pm 30.7 30.2 14.8 38 9.8 NE 11 13 6 7 1009.7 1008.8 0.0
11/07:00pm 31.4 30.5 13.6 33 10.8 NNE 11 17 6 9 1009.1 1008.3 0.0
11/06:30pm 33.0 30.0 12.6 29 12.2 NE 20 24 11 13 1008.7 1007.9 0.0
11/06:00pm 34.1 32.7 13.5 28 12.6 ENE 13 19 7 10 1008.5 1007.7 0.0
11/05:30pm 34.3 31.3 10.8 24 13.8 E 17 26 9 14 1008.5 1007.7 0.0
11/05:00pm 35.0 33.7 11.4 24 14.0 ESE 9 17 5 9 1008.7 1007.9 0.0
11/04:30pm 34.2 30.8 10.7 24 13.8 ENE 19 26 10 14 1009.0 1008.2 0.0
11/04:00pm 34.2 33.6 13.6 29 12.6 NE 9 15 5 8 1009.5 1008.6 0.0
11/03:30pm 33.5 32.1 13.5 29 12.2 NE 13 20 7 11 1010.0 1009.1 0.0
11/03:00pm 34.3 32.5 12.0 25 13.3 N 13 28 7 15 1010.3 1009.5 0.0
11/02:30pm 34.6 32.9 11.1 24 13.9 ESE 11 20 6 11 1010.8 1010.0 0.0
11/02:00pm 35.4 35.0 14.1 28 13.2 WNW 9 11 5 6 1011.2 1010.4 0.0
11/01:30pm 33.6 32.9 12.0 27 12.9 NE 7 11 4 6 1011.6 1010.8 0.0
11/01:00pm 33.3 32.0 11.2 26 13.0 S 9 15 5 8 1011.9 1011.1 0.0
11/12:30pm 32.7 32.2 10.7 26 12.8 NNE 4 9 2 5 1012.1 1011.3 0.0
11/12:00pm 32.3 31.8 12.5 30 11.8 SE 7 13 4 7 1012.6 1011.8 0.0
11/11:30am 31.5 31.1 14.2 35 10.6 NNW 9 13 5 7 1012.8 1012.0 0.0
11/11:00am 30.3 29.7 13.6 36 10.1 N 9 15 5 8 1012.8 1012.0 0.0
11/10:30am 28.8 27.7 14.2 40 8.8 NNE 13 19 7 10 1013.0 1012.2 0.0
11/10:00am 27.9 26.4 15.2 46 7.8 N 17 22 9 12 1012.8 1012.0 0.0
11/09:30am 26.8 25.2 14.9 48 7.2 N 17 22 9 12 1013.0 1012.2 0.0
11/09:00am 25.2 23.6 14.9 52 6.2 NNE 17 22 9 12 1013.2 1012.4 0.0
11/08:30am 24.2 22.5 14.6 55 5.7 NNE 17 22 9 12 1013.1 1012.3 0.0
11/08:00am 22.8 21.6 14.1 58 5.1 NNE 13 17 7 9 1013.0 1012.2 0.0
11/07:30am 21.1 19.1 13.8 63 4.2 NNE 17 20 9 11 1012.4 1011.6 0.0
11/07:00am 19.1 17.8 12.6 66 3.7 NNE 11 11 6 6 1012.2 1011.4 0.0
11/06:30am 18.8 17.4 12.3 66 3.6 NNE 11 13 6 7 1011.7 1010.9 0.0
11/06:00am 19.0 17.2 12.0 64 3.9 NE 13 17 7 9 1011.2 1010.4 0.0
11/05:30am 18.6 17.2 12.1 66 3.6 ENE 11 15 6 8 1011.0 1010.2 0.0
11/05:00am 18.0 16.9 10.6 62 4.0 E 7 9 4 5 1010.6 1009.8 0.0
11/04:30am 18.1 16.8 11.2 64 3.8 E 9 11 5 6 1010.4 1009.6 0.0
11/04:00am 17.2 16.0 11.5 69 3.1 SE 9 11 5 6 1010.3 1009.5 0.0
11/03:30am 17.8 17.0 11.6 67 3.4 SSE 7 9 4 5 1010.3 1009.5 0.0
11/03:00am 20.9 20.6 12.6 59 4.7 N 6 7 3 4 1010.2 1009.3 0.0
11/02:30am 20.9 20.6 13.4 62 4.3 NNE 7 9 4 5 1010.5 1009.7 0.0
11/02:00am 21.2 20.4 11.2 53 5.6 NE 6 6 3 3 1010.9 1010.1 0.0
11/01:30am 22.8 21.7 10.6 46 6.8 NE 7 9 4 5 1011.2 1010.4 0.0
11/01:00am 22.7 21.9 11.7 49 6.2 ENE 7 9 4 5 1011.4 1010.6 0.0
11/12:30am 23.3 22.7 13.5 54 5.7 ENE 9 9 5 5 1011.6 1010.8 0.0
11/12:00am 23.8 23.1 12.1 48 6.7 N 7 9 4 5 1011.6 1010.8 0.0
 
Date/Time
EDT
Temp
°C
App
Temp
°C
Dew
Point
Rel
Hum
%
Delta-T
°C
Wind Press
QNH
hPa
Press
MSL
hPa
Rain
since 9 am
mm
Dir
 
Spd
km/h
Gust
km/h
Spd
kts
Gust
kts
10/11:30pm 23.5 22.4 13.1 52 6.0 NNE 11 13 6 7 1011.6 1010.8 0.0
10/11:00pm 24.3 23.2 13.2 50 6.5 NNE 11 11 6 6 1011.7 1010.9 0.0
10/10:30pm 26.0 24.7 12.5 43 7.8 N 11 13 6 7 1011.6 1010.8 0.0
10/10:00pm 26.2 25.5 13.3 45 7.6 N 9 11 5 6 1011.7 1010.9 0.0
10/09:30pm 25.7 25.2 13.9 48 7.0 N 9 11 5 6 1011.5 1010.7 0.0
10/09:00pm 27.3 26.3 13.3 42 8.3 N 11 11 6 6 1011.3 1010.5 0.0
10/08:30pm 27.2 25.6 12.8 41 8.5 NNE 13 19 7 10 1011.2 1010.4 0.0
10/08:00pm 28.9 27.1 13.2 38 9.4 NNE 15 19 8 10 1010.9 1010.1 0.0
10/07:30pm 32.1 32.1 11.3 28 12.2 E 2 6 1 3 1010.8 1010.0 0.0
10/07:00pm 31.9 30.2 11.1 28 12.1 SSE 11 22 6 12 1010.6 1009.8 0.0
10/06:30pm 32.3 30.4 10.4 26 12.7 SE 11 20 6 11 1010.5 1009.7 0.0
10/06:00pm 32.7 30.5 9.5 24 13.3 SE 11 20 6 11 1010.4 1009.6 0.0
10/05:30pm 33.0 31.1 10.4 25 13.1 SE 11 19 6 10 1010.4 1009.6 0.0
10/05:00pm 33.0 30.5 10.9 26 12.9 S 15 20 8 11 1010.3 1009.5 0.0
10/04:30pm 33.3 31.0 10.6 25 13.2 ESE 13 28 7 15 1010.5 1009.7 0.0
10/04:00pm 33.1 31.1 11.6 27 12.7 E 13 20 7 11 1010.8 1010.0 0.0
10/03:30pm 32.9 31.7 14.0 32 11.6 SE 13 20 7 11 1011.2 1010.4 0.0
10/03:00pm 31.9 29.4 12.2 30 11.7 SE 17 26 9 14 1011.7 1010.9 0.0
10/02:30pm 31.7 30.0 12.5 31 11.4 ESE 13 22 7 12 1012.2 1011.4 0.0
10/02:00pm 30.8 29.7 13.1 34 10.6 S 11 19 6 10 1012.8 1012.0 0.0
10/01:30pm 30.6 29.8 13.0 34 10.5 SW 9 13 5 7 1013.3 1012.5 0.0
10/01:00pm 29.7 29.5 13.5 37 9.7 N 7 13 4 7 1013.7 1012.9 0.0
10/12:30pm 29.2 29.1 13.8 39 9.3 ENE 7 17 4 9 1014.1 1013.3 0.0
10/12:00pm 29.1 29.6 15.6 44 8.3 ESE 7 17 4 9 1014.7 1013.9 0.0
10/11:30am 28.7 28.5 15.6 45 8.1 ENE 11 17 6 9 1015.0 1014.2 0.0
10/11:00am 26.9 25.8 14.3 46 7.6 NE 13 19 7 10 1015.1 1014.3 0.0
10/10:30am 26.5 24.8 14.6 48 7.2 NE 17 26 9 14 1015.3 1014.5 0.0
10/10:00am 26.3 24.4 15.7 52 6.5 NE 20 32 11 17 1015.4 1014.6 0.0
10/09:30am 25.6 23.2 15.3 53 6.3 NNE 22 28 12 15 1015.4 1014.6 0.0
10/09:00am 24.4 22.7 14.8 55 5.8 NE 17 24 9 13 1015.5 1014.7 0.0
10/08:30am 23.3 22.5 15.1 60 4.9 NE 13 17 7 9 1015.4 1014.6 0.0
10/08:00am 21.7 19.9 14.4 63 4.3 NE 17 20 9 11 1015.1 1014.3 0.0
10/07:30am 20.9 19.7 14.1 65 4.0 ENE 13 20 7 11 1014.9 1014.1 0.0
10/07:00am 19.6 18.2 13.5 68 3.5 ENE 13 15 7 8 1014.7 1013.9 0.0
10/06:30am 19.8 18.8 13.3 66 3.7 ENE 11 13 6 7 1014.4 1013.6 0.0
10/06:00am 20.5 19.4 13.0 62 4.3 E 11 15 6 8 1014.2 1013.4 0.0
10/05:30am 21.3 19.5 13.2 60 4.7 NE 15 20 8 11 1013.9 1013.1 0.0
10/05:00am 22.7 19.8 12.9 54 5.6 ENE 20 26 11 14 1013.8 1013.0 0.0
10/04:30am 22.7 20.4 12.9 54 5.7 ENE 17 24 9 13 1013.7 1012.9 0.0
10/04:00am 23.2 20.8 12.5 51 6.1 ENE 17 24 9 13 1013.4 1012.6 0.0
10/03:30am 23.6 21.1 12.3 49 6.5 E 17 28 9 15 1013.3 1012.5 0.0
10/03:00am 23.9 20.9 11.9 47 6.8 E 19 30 10 16 1013.2 1012.4 0.0
10/02:30am 24.1 21.4 11.8 46 7.0 ESE 17 24 9 13 1013.2 1012.4 0.0
10/02:00am 24.6 22.0 11.9 45 7.3 ESE 17 24 9 13 1013.2 1012.4 0.0
10/01:30am 24.6 22.3 11.9 45 7.3 ESE 15 22 8 12 1013.5 1012.7 0.0
10/01:00am 25.4 23.1 11.9 43 7.7 ESE 15 20 8 11 1013.7 1012.9 0.0
10/12:30am 25.8 23.5 11.9 42 8.0 ESE 15 22 8 12 1014.0 1013.2 0.0
10/12:00am 26.5 24.0 12.2 41 8.3 ESE 17 26 9 14 1014.1 1013.3 0.0
 
Date/Time
EDT
Temp
°C
App
Temp
°C
Dew
Point
Rel
Hum
%
Delta-T
°C
Wind Press
QNH
hPa
Press
MSL
hPa
Rain
since 9 am
mm
Dir
 
Spd
km/h
Gust
km/h
Spd
kts
Gust
kts
09/11:30pm 26.4 24.6 12.1 41 8.3 ESE 13 20 7 11 1014.2 1013.4 0.0
09/11:00pm 25.8 23.7 11.2 40 8.3 ESE 13 19 7 10 1014.3 1013.5 0.0
09/10:30pm 25.5 24.2 11.3 41 8.1 ESE 9 15 5 8 1014.4 1013.6 0.0
09/10:00pm 26.1 24.6 10.7 38 8.7 E 9 13 5 7 1014.2 1013.4 0.0
09/09:30pm 26.7 25.3 10.8 37 9.0 E 9 11 5 6 1014.0 1013.2 0.0
09/09:00pm 27.5 26.0 10.7 35 9.5 E 9 11 5 6 1013.8 1013.0 0.0

Other Formats:

Comma delimited format used in spreadsheet applications
http://www.bom.gov.au/fwo/IDN60801/IDN60801.95715.axf

JavaScript Object Notation format (JSON) in row-major order
http://www.bom.gov.au/fwo/IDN60801/IDN60801.95715.json